sensor_id;sensor_type;location;lat;lon;timestamp;pressure;altitude;pressure_sealevel;temperature;humidity
31121;BME280;17770;45.966;13.632;2023-01-15T00:01:24;100886.66;;;14.29;63.24
31121;BME280;17770;45.966;13.632;2023-01-15T00:03:51;100888.31;;;14.30;63.33
31121;BME280;17770;45.966;13.632;2023-01-15T00:06:17;100886.66;;;14.29;63.32
31121;BME280;17770;45.966;13.632;2023-01-15T00:08:43;100885.72;;;14.30;63.19
31121;BME280;17770;45.966;13.632;2023-01-15T00:11:09;100881.47;;;14.29;63.17
31121;BME280;17770;45.966;13.632;2023-01-15T00:13:35;100877.09;;;14.30;63.17
31121;BME280;17770;45.966;13.632;2023-01-15T00:16:09;100872.75;;;14.30;63.45
31121;BME280;17770;45.966;13.632;2023-01-15T00:18:35;100872.75;;;14.30;63.03
31121;BME280;17770;45.966;13.632;2023-01-15T00:21:02;100865.84;;;14.31;63.46
31121;BME280;17770;45.966;13.632;2023-01-15T00:23:28;100862.38;;;14.30;63.33
31121;BME280;17770;45.966;13.632;2023-01-15T00:26:16;100852.91;;;14.29;63.46
31121;BME280;17770;45.966;13.632;2023-01-15T00:29:01;100854.59;;;14.30;63.12
31121;BME280;17770;45.966;13.632;2023-01-15T00:31:27;100858.94;;;14.30;63.11
31121;BME280;17770;45.966;13.632;2023-01-15T00:33:53;100859.84;;;14.29;63.17
31121;BME280;17770;45.966;13.632;2023-01-15T00:36:19;100865.84;;;14.31;63.28
31121;BME280;17770;45.966;13.632;2023-01-15T00:38:45;100863.25;;;14.31;63.28
31121;BME280;17770;45.966;13.632;2023-01-15T00:41:12;100869.31;;;14.30;63.14
31121;BME280;17770;45.966;13.632;2023-01-15T00:43:38;100870.16;;;14.30;63.17
31121;BME280;17770;45.966;13.632;2023-01-15T00:46:05;100856.34;;;14.30;63.08
31121;BME280;17770;45.966;13.632;2023-01-15T00:48:36;100862.38;;;14.30;63.20
31121;BME280;17770;45.966;13.632;2023-01-15T00:51:02;100861.53;;;14.30;63.29
31121;BME280;17770;45.966;13.632;2023-01-15T00:53:28;100864.13;;;14.30;63.16
31121;BME280;17770;45.966;13.632;2023-01-15T00:55:54;100861.53;;;14.30;63.41
31121;BME280;17770;45.966;13.632;2023-01-15T00:58:20;100860.69;;;14.29;63.18
31121;BME280;17770;45.966;13.632;2023-01-15T01:00:51;100858.13;;;14.29;63.25
31121;BME280;17770;45.966;13.632;2023-01-15T01:03:17;100863.31;;;14.28;63.16
31121;BME280;17770;45.966;13.632;2023-01-15T01:05:43;100870.28;;;14.27;63.28
31121;BME280;17770;45.966;13.632;2023-01-15T01:08:08;100868.50;;;14.29;63.26
31121;BME280;17770;45.966;13.632;2023-01-15T01:10:34;100859.91;;;14.27;63.27
31121;BME280;17770;45.966;13.632;2023-01-15T01:13:20;100853.88;;;14.27;63.39
31121;BME280;17770;45.966;13.632;2023-01-15T01:15:46;100852.94;;;14.28;63.26
31121;BME280;17770;45.966;13.632;2023-01-15T01:18:30;100859.06;;;14.27;63.23
31121;BME280;17770;45.966;13.632;2023-01-15T01:20:56;100848.69;;;14.27;63.02
31121;BME280;17770;45.966;13.632;2023-01-15T01:23:22;100851.22;;;14.28;63.19
31121;BME280;17770;45.966;13.632;2023-01-15T01:25:49;100846.94;;;14.27;63.03
31121;BME280;17770;45.966;13.632;2023-01-15T01:28:15;100846.09;;;14.27;63.26
31121;BME280;17770;45.966;13.632;2023-01-15T01:30:41;100844.34;;;14.27;63.38
31121;BME280;17770;45.966;13.632;2023-01-15T01:33:07;100836.56;;;14.27;63.16
31121;BME280;17770;45.966;13.632;2023-01-15T01:35:33;100827.06;;;14.26;62.87
31121;BME280;17770;45.966;13.632;2023-01-15T01:37:58;100826.25;;;14.26;63.19
31121;BME280;17770;45.966;13.632;2023-01-15T01:40:24;100826.25;;;14.26;63.16
31121;BME280;17770;45.966;13.632;2023-01-15T01:42:50;100830.50;;;14.27;62.94
31121;BME280;17770;45.966;13.632;2023-01-15T01:45:27;100824.47;;;14.26;62.99
31121;BME280;17770;45.966;13.632;2023-01-15T01:47:55;100820.19;;;14.25;63.17
31121;BME280;17770;45.966;13.632;2023-01-15T01:50:25;100818.47;;;14.26;63.26
31121;BME280;17770;45.966;13.632;2023-01-15T01:53:02;100806.38;;;14.25;63.44
31121;BME280;17770;45.966;13.632;2023-01-15T01:55:31;100815.00;;;14.25;63.38
31121;BME280;17770;45.966;13.632;2023-01-15T01:57:58;100815.00;;;14.25;63.40
31121;BME280;17770;45.966;13.632;2023-01-15T02:00:25;100815.00;;;14.25;63.09
31121;BME280;17770;45.966;13.632;2023-01-15T02:02:51;100808.09;;;14.26;63.06
31121;BME280;17770;45.966;13.632;2023-01-15T02:05:28;100805.50;;;14.24;63.14
31121;BME280;17770;45.966;13.632;2023-01-15T02:07:55;100806.38;;;14.25;63.12
31121;BME280;17770;45.966;13.632;2023-01-15T02:10:21;100799.47;;;14.24;63.04
31121;BME280;17770;45.966;13.632;2023-01-15T02:12:52;100791.69;;;14.24;63.20
31121;BME280;17770;45.966;13.632;2023-01-15T02:15:27;100796.03;;;14.23;63.10
31121;BME280;17770;45.966;13.632;2023-01-15T02:18:03;100801.19;;;14.25;63.18
31121;BME280;17770;45.966;13.632;2023-01-15T02:20:31;100804.63;;;14.25;63.15
31121;BME280;17770;45.966;13.632;2023-01-15T02:23:04;100793.41;;;14.25;63.12
31121;BME280;17770;45.966;13.632;2023-01-15T02:25:41;100790.84;;;14.23;63.23
31121;BME280;17770;45.966;13.632;2023-01-15T02:30:44;100788.22;;;14.25;63.14
31121;BME280;17770;45.966;13.632;2023-01-15T02:33:23;100789.09;;;14.24;63.15
31121;BME280;17770;45.966;13.632;2023-01-15T02:35:56;100781.31;;;14.24;63.06
31121;BME280;17770;45.966;13.632;2023-01-15T02:38:29;100788.22;;;14.25;63.12
31121;BME280;17770;45.966;13.632;2023-01-15T02:40:57;100783.91;;;14.24;63.06
31121;BME280;17770;45.966;13.632;2023-01-15T02:43:26;100770.94;;;14.24;62.82
31121;BME280;17770;45.966;13.632;2023-01-15T02:45:55;100776.97;;;14.24;63.25
31121;BME280;17770;45.966;13.632;2023-01-15T02:48:23;100777.88;;;14.23;63.25
31121;BME280;17770;45.966;13.632;2023-01-15T02:50:53;100771.81;;;14.23;63.33
31121;BME280;17770;45.966;13.632;2023-01-15T02:53:21;100762.31;;;14.23;63.09
31121;BME280;17770;45.966;13.632;2023-01-15T02:55:49;100767.56;;;14.22;63.02
31121;BME280;17770;45.966;13.632;2023-01-15T02:58:21;100765.81;;;14.22;63.14
31121;BME280;17770;45.966;13.632;2023-01-15T03:00:48;100755.44;;;14.22;63.30
31121;BME280;17770;45.966;13.632;2023-01-15T03:03:41;100750.25;;;14.22;63.45
31121;BME280;17770;45.966;13.632;2023-01-15T03:06:12;100745.06;;;14.22;63.12
31121;BME280;17770;45.966;13.632;2023-01-15T03:08:40;100742.47;;;14.22;63.32
31121;BME280;17770;45.966;13.632;2023-01-15T03:11:29;100739.09;;;14.20;62.79
31121;BME280;17770;45.966;13.632;2023-01-15T03:16:35;100723.47;;;14.22;62.81
31121;BME280;17770;45.966;13.632;2023-01-15T03:21:52;100719.19;;;14.21;63.28
31121;BME280;17770;45.966;13.632;2023-01-15T03:27:19;100715.69;;;14.22;63.18
31121;BME280;17770;45.966;13.632;2023-01-15T03:30:07;100706.22;;;14.21;63.12
31121;BME280;17770;45.966;13.632;2023-01-15T03:32:33;100706.22;;;14.21;63.13
31121;BME280;17770;45.966;13.632;2023-01-15T03:35:01;100704.50;;;14.20;63.03
31121;BME280;17770;45.966;13.632;2023-01-15T03:37:29;100696.72;;;14.20;63.04
31121;BME280;17770;45.966;13.632;2023-01-15T03:39:56;100694.06;;;14.21;63.18
31121;BME280;17770;45.966;13.632;2023-01-15T03:45:11;100689.78;;;14.20;62.98
31121;BME280;17770;45.966;13.632;2023-01-15T03:50:11;100682.94;;;14.19;63.23
31121;BME280;17770;45.966;13.632;2023-01-15T03:52:50;100685.53;;;14.19;63.25
31121;BME280;17770;45.966;13.632;2023-01-15T03:55:20;100684.66;;;14.19;62.93
31121;BME280;17770;45.966;13.632;2023-01-15T03:58:01;100673.44;;;14.18;63.19
31121;BME280;17770;45.966;13.632;2023-01-15T04:00:55;100676.03;;;14.18;63.01
31121;BME280;17770;45.966;13.632;2023-01-15T04:03:21;100670.84;;;14.18;63.06
31121;BME280;17770;45.966;13.632;2023-01-15T04:05:49;100665.66;;;14.18;62.93
31121;BME280;17770;45.966;13.632;2023-01-15T04:08:17;100668.25;;;14.18;63.18
31121;BME280;17770;45.966;13.632;2023-01-15T04:10:56;100669.19;;;14.17;63.55
31121;BME280;17770;45.966;13.632;2023-01-15T04:13:25;100666.66;;;14.16;63.13
31121;BME280;17770;45.966;13.632;2023-01-15T04:15:53;100672.66;;;14.16;62.92
31121;BME280;17770;45.966;13.632;2023-01-15T04:18:19;100662.28;;;14.16;63.08
31121;BME280;17770;45.966;13.632;2023-01-15T04:20:45;100662.28;;;14.16;63.24
31121;BME280;17770;45.966;13.632;2023-01-15T04:23:12;100654.50;;;14.16;63.09
31121;BME280;17770;45.966;13.632;2023-01-15T04:25:38;100661.41;;;14.17;62.96
31121;BME280;17770;45.966;13.632;2023-01-15T04:28:05;100651.91;;;14.16;62.85
31121;BME280;17770;45.966;13.632;2023-01-15T04:30:31;100645.97;;;14.14;62.84
31121;BME280;17770;45.966;13.632;2023-01-15T04:32:57;100650.22;;;14.15;63.08
31121;BME280;17770;45.966;13.632;2023-01-15T04:35:23;100642.44;;;14.15;63.08
31121;BME280;17770;45.966;13.632;2023-01-15T04:37:48;100639.00;;;14.15;63.24
31121;BME280;17770;45.966;13.632;2023-01-15T04:40:18;100635.59;;;14.14;62.92
31121;BME280;17770;45.966;13.632;2023-01-15T04:43:03;100633.00;;;14.14;63.18
31121;BME280;17770;45.966;13.632;2023-01-15T04:45:47;100626.09;;;14.13;63.07
31121;BME280;17770;45.966;13.632;2023-01-15T04:48:13;100628.69;;;14.13;63.01
31121;BME280;17770;45.966;13.632;2023-01-15T04:50:39;100634.72;;;14.14;63.07
31121;BME280;17770;45.966;13.632;2023-01-15T04:53:04;100625.22;;;14.14;63.57
31121;BME280;17770;45.966;13.632;2023-01-15T04:55:30;100619.16;;;14.14;63.26
31121;BME280;17770;45.966;13.632;2023-01-15T04:57:56;100611.38;;;14.14;63.05
31121;BME280;17770;45.966;13.632;2023-01-15T05:00:22;100617.50;;;14.13;63.01
31121;BME280;17770;45.966;13.632;2023-01-15T05:02:48;100619.16;;;14.14;63.09
31121;BME280;17770;45.966;13.632;2023-01-15T05:05:14;100611.38;;;14.14;62.72
31121;BME280;17770;45.966;13.632;2023-01-15T05:07:40;100612.31;;;14.13;62.78
31121;BME280;17770;45.966;13.632;2023-01-15T05:10:06;100613.13;;;14.13;62.87
31121;BME280;17770;45.966;13.632;2023-01-15T05:12:32;100599.56;;;14.07;63.20
31121;BME280;17770;45.966;13.632;2023-01-15T05:14:58;100598.75;;;14.06;63.43
31121;BME280;17770;45.966;13.632;2023-01-15T05:17:24;100594.44;;;14.05;63.20
31121;BME280;17770;45.966;13.632;2023-01-15T05:19:50;100598.78;;;14.05;63.34
31121;BME280;17770;45.966;13.632;2023-01-15T05:22:16;100605.66;;;14.06;63.22
31121;BME280;17770;45.966;13.632;2023-01-15T05:24:42;100596.19;;;14.05;63.72
31121;BME280;17770;45.966;13.632;2023-01-15T05:27:07;100580.53;;;14.08;63.49
31121;BME280;17770;45.966;13.632;2023-01-15T05:29:33;100580.41;;;14.11;63.19
31121;BME280;17770;45.966;13.632;2023-01-15T05:32:00;100586.41;;;14.11;63.14
31121;BME280;17770;45.966;13.632;2023-01-15T05:34:26;100583.78;;;14.13;63.26
31121;BME280;17770;45.966;13.632;2023-01-15T05:36:52;100585.53;;;14.12;63.25
31121;BME280;17770;45.966;13.632;2023-01-15T05:39:17;100576.81;;;14.13;63.09
31121;BME280;17770;45.966;13.632;2023-01-15T05:41:44;100569.97;;;14.12;62.71
31121;BME280;17770;45.966;13.632;2023-01-15T05:44:21;100575.16;;;14.12;62.64
31121;BME280;17770;45.966;13.632;2023-01-15T05:46:48;100560.44;;;14.13;63.26
31121;BME280;17770;45.966;13.632;2023-01-15T05:49:15;100560.47;;;14.11;63.15
31121;BME280;17770;45.966;13.632;2023-01-15T05:51:42;100560.47;;;14.11;63.19
31121;BME280;17770;45.966;13.632;2023-01-15T05:54:10;100557.88;;;14.11;62.78
31121;BME280;17770;45.966;13.632;2023-01-15T05:56:37;100560.47;;;14.11;62.99
31121;BME280;17770;45.966;13.632;2023-01-15T05:59:03;100558.78;;;14.10;63.24
31121;BME280;17770;45.966;13.632;2023-01-15T06:01:29;100566.56;;;14.10;63.40
31121;BME280;17770;45.966;13.632;2023-01-15T06:03:58;100560.47;;;14.11;63.10
31121;BME280;17770;45.966;13.632;2023-01-15T06:06:25;100552.69;;;14.11;63.05
31121;BME280;17770;45.966;13.632;2023-01-15T06:08:50;100540.66;;;14.10;63.03
31121;BME280;17770;45.966;13.632;2023-01-15T06:11:16;100538.06;;;14.10;63.01
31121;BME280;17770;45.966;13.632;2023-01-15T06:13:42;100538.91;;;14.11;63.21
31121;BME280;17770;45.966;13.632;2023-01-15T06:16:08;100541.56;;;14.09;63.43
31121;BME280;17770;45.966;13.632;2023-01-15T06:18:40;100541.56;;;14.09;63.13
31121;BME280;17770;45.966;13.632;2023-01-15T06:21:06;100539.84;;;14.08;63.02
31121;BME280;17770;45.966;13.632;2023-01-15T06:23:33;100538.97;;;14.09;62.90
31121;BME280;17770;45.966;13.632;2023-01-15T06:26:02;100531.19;;;14.09;62.79
31121;BME280;17770;45.966;13.632;2023-01-15T06:28:28;100525.16;;;14.09;63.24
31121;BME280;17770;45.966;13.632;2023-01-15T06:30:54;100526.00;;;14.09;63.20
31121;BME280;17770;45.966;13.632;2023-01-15T06:33:20;100527.75;;;14.09;62.87
31121;BME280;17770;45.966;13.632;2023-01-15T06:35:46;100519.09;;;14.08;63.11
31121;BME280;17770;45.966;13.632;2023-01-15T06:38:11;100519.97;;;14.09;63.29
31121;BME280;17770;45.966;13.632;2023-01-15T06:40:37;100526.88;;;14.08;63.02
31121;BME280;17770;45.966;13.632;2023-01-15T06:43:04;100526.81;;;14.10;63.03
31121;BME280;17770;45.966;13.632;2023-01-15T06:45:50;100526.00;;;14.09;63.20
31121;BME280;17770;45.966;13.632;2023-01-15T06:48:34;100534.66;;;14.08;62.98
31121;BME280;17770;45.966;13.632;2023-01-15T06:51:00;100547.63;;;14.08;62.86
31121;BME280;17770;45.966;13.632;2023-01-15T06:53:27;100546.81;;;14.08;63.10
31121;BME280;17770;45.966;13.632;2023-01-15T06:55:53;100540.78;;;14.07;63.11
31121;BME280;17770;45.966;13.632;2023-01-15T06:58:18;100538.19;;;14.07;63.07
31121;BME280;17770;45.966;13.632;2023-01-15T07:00:47;100538.19;;;14.07;63.29
31121;BME280;17770;45.966;13.632;2023-01-15T07:03:19;100531.25;;;14.08;62.55
31121;BME280;17770;45.966;13.632;2023-01-15T07:05:45;100528.66;;;14.08;63.25
31121;BME280;17770;45.966;13.632;2023-01-15T07:08:11;100539.84;;;14.08;63.03
31121;BME280;17770;45.966;13.632;2023-01-15T07:10:37;100547.63;;;14.08;63.05
31121;BME280;17770;45.966;13.632;2023-01-15T07:13:02;100541.56;;;14.09;62.75
31121;BME280;17770;45.966;13.632;2023-01-15T07:15:28;100546.75;;;14.09;63.15
31121;BME280;17770;45.966;13.632;2023-01-15T07:17:55;100552.00;;;14.08;63.09
31121;BME280;17770;45.966;13.632;2023-01-15T07:20:22;100550.22;;;14.08;63.20
31121;BME280;17770;45.966;13.632;2023-01-15T07:22:51;100561.47;;;14.09;62.89
31121;BME280;17770;45.966;13.632;2023-01-15T07:25:18;100558.88;;;14.09;62.97
31121;BME280;17770;45.966;13.632;2023-01-15T07:27:47;100558.00;;;14.08;62.65
31121;BME280;17770;45.966;13.632;2023-01-15T07:30:13;100552.00;;;14.08;62.97
31121;BME280;17770;45.966;13.632;2023-01-15T07:32:40;100550.22;;;14.08;63.19
31121;BME280;17770;45.966;13.632;2023-01-15T07:35:05;100546.75;;;14.09;62.98
31121;BME280;17770;45.966;13.632;2023-01-15T07:37:31;100543.31;;;14.09;63.05
31121;BME280;17770;45.966;13.632;2023-01-15T07:39:57;100533.84;;;14.08;62.95
31121;BME280;17770;45.966;13.632;2023-01-15T07:42:23;100537.25;;;14.08;63.20
31121;BME280;17770;45.966;13.632;2023-01-15T07:45:08;100531.25;;;14.08;62.98
31121;BME280;17770;45.966;13.632;2023-01-15T07:47:52;100531.25;;;14.08;62.96
31121;BME280;17770;45.966;13.632;2023-01-15T07:50:37;100529.47;;;14.08;63.04
31121;BME280;17770;45.966;13.632;2023-01-15T07:53:03;100518.28;;;14.08;62.93
31121;BME280;17770;45.966;13.632;2023-01-15T07:55:29;100504.41;;;14.09;62.94
31121;BME280;17770;45.966;13.632;2023-01-15T07:57:55;100494.94;;;14.08;63.28
31121;BME280;17770;45.966;13.632;2023-01-15T08:00:22;100482.00;;;14.08;62.72
31121;BME280;17770;45.966;13.632;2023-01-15T08:02:49;100480.28;;;14.07;63.11
31121;BME280;17770;45.966;13.632;2023-01-15T08:05:15;100487.16;;;14.08;63.12
31121;BME280;17770;45.966;13.632;2023-01-15T08:07:41;100475.88;;;14.09;62.75
31121;BME280;17770;45.966;13.632;2023-01-15T08:10:08;100475.88;;;14.09;62.76
31121;BME280;17770;45.966;13.632;2023-01-15T08:12:34;100468.94;;;14.09;62.67
31121;BME280;17770;45.966;13.632;2023-01-15T08:15:19;100477.63;;;14.08;62.85
31121;BME280;17770;45.966;13.632;2023-01-15T08:17:46;100478.47;;;14.09;62.89
31121;BME280;17770;45.966;13.632;2023-01-15T08:20:18;100470.69;;;14.09;62.96
31121;BME280;17770;45.966;13.632;2023-01-15T08:22:45;100472.44;;;14.08;63.02
31121;BME280;17770;45.966;13.632;2023-01-15T08:25:13;100475.03;;;14.08;63.04
31121;BME280;17770;45.966;13.632;2023-01-15T08:27:39;100470.69;;;14.09;62.97
31121;BME280;17770;45.966;13.632;2023-01-15T08:30:07;100474.13;;;14.09;62.98
31121;BME280;17770;45.966;13.632;2023-01-15T08:32:33;100469.78;;;14.10;63.05
31121;BME280;17770;45.966;13.632;2023-01-15T08:34:59;100470.63;;;14.10;63.03
31121;BME280;17770;45.966;13.632;2023-01-15T08:37:25;100472.44;;;14.08;63.05
31121;BME280;17770;45.966;13.632;2023-01-15T08:39:51;100467.25;;;14.08;62.74
31121;BME280;17770;45.966;13.632;2023-01-15T08:42:20;100476.72;;;14.09;62.88
31121;BME280;17770;45.966;13.632;2023-01-15T08:44:46;100475.88;;;14.09;62.83
31121;BME280;17770;45.966;13.632;2023-01-15T08:47:13;100480.22;;;14.08;62.90
31121;BME280;17770;45.966;13.632;2023-01-15T08:49:39;100480.22;;;14.08;63.09
31121;BME280;17770;45.966;13.632;2023-01-15T08:52:05;100465.50;;;14.09;63.65
31121;BME280;17770;45.966;13.632;2023-01-15T08:54:31;100472.38;;;14.10;62.92
31121;BME280;17770;45.966;13.632;2023-01-15T08:56:57;100475.81;;;14.10;63.00
31121;BME280;17770;45.966;13.632;2023-01-15T08:59:26;100475.03;;;14.08;63.10
31121;BME280;17770;45.966;13.632;2023-01-15T09:01:53;100474.13;;;14.09;63.12
31121;BME280;17770;45.966;13.632;2023-01-15T09:04:19;100472.44;;;14.08;62.96
31121;BME280;17770;45.966;13.632;2023-01-15T09:06:46;100467.25;;;14.08;62.95
31121;BME280;17770;45.966;13.632;2023-01-15T09:09:13;100476.72;;;14.09;62.79
31121;BME280;17770;45.966;13.632;2023-01-15T09:11:40;100476.81;;;14.08;63.03
31121;BME280;17770;45.966;13.632;2023-01-15T09:14:09;100477.63;;;14.08;63.19
31121;BME280;17770;45.966;13.632;2023-01-15T09:16:36;100469.84;;;14.08;63.19
31121;BME280;17770;45.966;13.632;2023-01-15T09:19:02;100477.56;;;14.10;63.01
31121;BME280;17770;45.966;13.632;2023-01-15T09:21:28;100469.03;;;14.08;63.06
31121;BME280;17770;45.966;13.632;2023-01-15T09:23:54;100472.38;;;14.10;63.31
31121;BME280;17770;45.966;13.632;2023-01-15T09:26:28;100477.63;;;14.08;63.00
31121;BME280;17770;45.966;13.632;2023-01-15T09:28:54;100471.63;;;14.08;63.15
31121;BME280;17770;45.966;13.632;2023-01-15T09:31:23;100465.50;;;14.09;63.16
31121;BME280;17770;45.966;13.632;2023-01-15T09:33:52;100463.78;;;14.09;62.79
31121;BME280;17770;45.966;13.632;2023-01-15T09:36:26;100462.06;;;14.08;63.04
31121;BME280;17770;45.966;13.632;2023-01-15T09:38:52;100461.16;;;14.09;62.76
31121;BME280;17770;45.966;13.632;2023-01-15T09:41:19;100470.69;;;14.09;63.06
31121;BME280;17770;45.966;13.632;2023-01-15T09:44:15;100464.66;;;14.08;63.09
31121;BME280;17770;45.966;13.632;2023-01-15T09:47:02;100461.16;;;14.09;63.16
31121;BME280;17770;45.966;13.632;2023-01-15T09:49:34;100452.53;;;14.09;62.89
31121;BME280;17770;45.966;13.632;2023-01-15T09:56:57;100443.03;;;14.09;62.90
31121;BME280;17770;45.966;13.632;2023-01-15T10:01:49;100430.94;;;14.08;63.09
31121;BME280;17770;45.966;13.632;2023-01-15T10:06:47;100412.78;;;14.08;63.14
31121;BME280;17770;45.966;13.632;2023-01-15T10:09:21;100424.81;;;14.11;63.15
31121;BME280;17770;45.966;13.632;2023-01-15T10:11:50;100421.44;;;14.09;63.19
31121;BME280;17770;45.966;13.632;2023-01-15T10:14:49;100419.69;;;14.09;63.21
31121;BME280;17770;45.966;13.632;2023-01-15T10:17:21;100414.50;;;14.09;63.06
31121;BME280;17770;45.966;13.632;2023-01-15T10:19:50;100409.38;;;14.08;63.34
31121;BME280;17770;45.966;13.632;2023-01-15T10:22:19;100419.69;;;14.09;63.08
31121;BME280;17770;45.966;13.632;2023-01-15T10:24:52;100413.56;;;14.10;63.11
31121;BME280;17770;45.966;13.632;2023-01-15T10:27:21;100409.31;;;14.09;63.25
31121;BME280;17770;45.966;13.632;2023-01-15T10:30:10;100396.34;;;14.09;63.19
31121;BME280;17770;45.966;13.632;2023-01-15T10:48:12;100374.69;;;14.10;63.48
31121;BME280;17770;45.966;13.632;2023-01-15T10:50:38;100372.94;;;14.11;63.25
31121;BME280;17770;45.966;13.632;2023-01-15T10:55:35;100350.50;;;14.10;63.45
31121;BME280;17770;45.966;13.632;2023-01-15T11:00:38;100357.44;;;14.09;63.13
31121;BME280;17770;45.966;13.632;2023-01-15T11:03:09;100349.66;;;14.09;63.05
31121;BME280;17770;45.966;13.632;2023-01-15T11:05:39;100353.16;;;14.08;63.47
31121;BME280;17770;45.966;13.632;2023-01-15T11:08:06;100345.38;;;14.08;63.10
31121;BME280;17770;45.966;13.632;2023-01-15T11:10:33;100344.47;;;14.09;63.70
31121;BME280;17770;45.966;13.632;2023-01-15T11:13:01;100336.69;;;14.09;63.54
31121;BME280;17770;45.966;13.632;2023-01-15T11:15:48;100328.94;;;14.09;63.16
31121;BME280;17770;45.966;13.632;2023-01-15T11:18:38;100328.06;;;14.09;63.37
31121;BME280;17770;45.966;13.632;2023-01-15T11:21:24;100333.19;;;14.10;63.18
31121;BME280;17770;45.966;13.632;2023-01-15T11:23:50;100324.56;;;14.10;63.53
31121;BME280;17770;45.966;13.632;2023-01-15T11:26:29;100321.91;;;14.11;63.39
31121;BME280;17770;45.966;13.632;2023-01-15T11:28:56;100315.03;;;14.10;63.53
31121;BME280;17770;45.966;13.632;2023-01-15T11:31:33;100310.63;;;14.12;64.44
31121;BME280;17770;45.966;13.632;2023-01-15T11:34:00;100314.63;;;14.19;65.74
31121;BME280;17770;45.966;13.632;2023-01-15T11:36:27;100311.66;;;14.28;66.25
31121;BME280;17770;45.966;13.632;2023-01-15T11:38:53;100302.19;;;14.27;65.54
31121;BME280;17770;45.966;13.632;2023-01-15T11:43:53;100283.25;;;14.25;65.52
31121;BME280;17770;45.966;13.632;2023-01-15T11:46:37;100269.44;;;14.25;65.05
31121;BME280;17770;45.966;13.632;2023-01-15T11:49:21;100282.44;;;14.23;64.84
31121;BME280;17770;45.966;13.632;2023-01-15T11:52:09;100291.97;;;14.23;64.97
31121;BME280;17770;45.966;13.632;2023-01-15T11:54:36;100287.72;;;14.22;64.65
31121;BME280;17770;45.966;13.632;2023-01-15T11:57:03;100284.25;;;14.21;64.58
31121;BME280;17770;45.966;13.632;2023-01-15T11:59:30;100273.06;;;14.21;64.84
31121;BME280;17770;45.966;13.632;2023-01-15T12:02:00;100273.06;;;14.21;64.67
31121;BME280;17770;45.966;13.632;2023-01-15T12:04:29;100266.09;;;14.21;64.17
31121;BME280;17770;45.966;13.632;2023-01-15T12:06:57;100250.53;;;14.21;64.35
31121;BME280;17770;45.966;13.632;2023-01-15T12:09:27;100242.84;;;14.20;64.05
31121;BME280;17770;45.966;13.632;2023-01-15T12:12:18;100245.44;;;14.20;63.94
31121;BME280;17770;45.966;13.632;2023-01-15T12:22:39;100235.97;;;14.19;63.74
31121;BME280;17770;45.966;13.632;2023-01-15T12:30:37;100211.78;;;14.18;64.02
31121;BME280;17770;45.966;13.632;2023-01-15T12:36:49;100206.59;;;14.18;63.68
31121;BME280;17770;45.966;13.632;2023-01-15T12:38:58;100206.59;;;14.18;63.75
31121;BME280;17770;45.966;13.632;2023-01-15T12:41:27;100205.78;;;14.18;63.92
31121;BME280;17770;45.966;13.632;2023-01-15T12:47:19;100210.06;;;14.19;63.92
31121;BME280;17770;45.966;13.632;2023-01-15T12:49:48;100197.94;;;14.19;63.49
31121;BME280;17770;45.966;13.632;2023-01-15T12:52:20;100192.81;;;14.18;63.57
31121;BME280;17770;45.966;13.632;2023-01-15T12:55:32;100187.56;;;14.19;63.71
31121;BME280;17770;45.966;13.632;2023-01-15T12:57:39;100191.03;;;14.18;63.53
31121;BME280;17770;45.966;13.632;2023-01-15T13:00:11;100188.44;;;14.18;63.97
31121;BME280;17770;45.966;13.632;2023-01-15T13:10:30;100184.97;;;14.19;63.75
31121;BME280;17770;45.966;13.632;2023-01-15T13:13:13;100178.09;;;14.18;63.75
31121;BME280;17770;45.966;13.632;2023-01-15T13:15:41;100172.88;;;14.18;63.72
31121;BME280;17770;45.966;13.632;2023-01-15T13:21:13;100166.81;;;14.19;63.80
31121;BME280;17770;45.966;13.632;2023-01-15T13:34:27;100153.84;;;14.19;63.88
31121;BME280;17770;45.966;13.632;2023-01-15T13:36:57;100149.56;;;14.18;63.92
31121;BME280;17770;45.966;13.632;2023-01-15T13:39:26;100150.31;;;14.20;63.90
31121;BME280;17770;45.966;13.632;2023-01-15T13:41:56;100156.38;;;14.21;63.36
31121;BME280;17770;45.966;13.632;2023-01-15T13:44:45;100155.50;;;14.20;63.96
31121;BME280;17770;45.966;13.632;2023-01-15T13:47:12;100141.69;;;14.20;63.94
31121;BME280;17770;45.966;13.632;2023-01-15T13:49:52;100145.91;;;14.22;63.90
31121;BME280;17770;45.966;13.632;2023-01-15T13:52:25;100154.66;;;14.20;63.84
31121;BME280;17770;45.966;13.632;2023-01-15T13:54:51;100147.66;;;14.22;64.09
31121;BME280;17770;45.966;13.632;2023-01-15T13:57:33;100149.47;;;14.20;63.61
31121;BME280;17770;45.966;13.632;2023-01-15T14:00:00;100155.44;;;14.22;63.94
31121;BME280;17770;45.966;13.632;2023-01-15T14:02:28;100145.06;;;14.22;63.89
31121;BME280;17770;45.966;13.632;2023-01-15T14:04:55;100152.06;;;14.20;63.90
31121;BME280;17770;45.966;13.632;2023-01-15T14:07:32;100146.81;;;14.21;63.97
31121;BME280;17770;45.966;13.632;2023-01-15T14:20:51;100128.53;;;14.24;63.92
31121;BME280;17770;45.966;13.632;2023-01-15T14:31:33;100116.41;;;14.25;63.81
31121;BME280;17770;45.966;13.632;2023-01-15T14:34:07;100110.34;;;14.26;64.00
31121;BME280;17770;45.966;13.632;2023-01-15T14:36:49;100104.28;;;14.25;63.90
31121;BME280;17770;45.966;13.632;2023-01-15T14:42:39;100113.75;;;14.26;63.77
31121;BME280;17770;45.966;13.632;2023-01-15T14:45:02;100106.72;;;14.28;63.84
31121;BME280;17770;45.966;13.632;2023-01-15T14:47:49;100102.47;;;14.27;63.86